sensor_id;sensor_type;location;lat;lon;timestamp;temperature;humidity
22161;DHT22;49035;48.812;11.762;2023-03-15T00:01:37;3.10;99.90
22161;DHT22;49035;48.812;11.762;2023-03-15T00:04:03;3.10;99.90
22161;DHT22;49035;48.812;11.762;2023-03-15T00:06:32;3.20;99.90
22161;DHT22;49035;48.812;11.762;2023-03-15T00:08:59;3.30;99.90
22161;DHT22;49035;48.812;11.762;2023-03-15T00:11:27;3.40;99.90
22161;DHT22;49035;48.812;11.762;2023-03-15T00:13:52;3.50;99.90
22161;DHT22;49035;48.812;11.762;2023-03-15T00:16:18;3.50;99.90
22161;DHT22;49035;48.812;11.762;2023-03-15T00:18:47;3.60;99.90
22161;DHT22;49035;48.812;11.762;2023-03-15T00:21:13;3.70;99.90
22161;DHT22;49035;48.812;11.762;2023-03-15T00:23:38;3.70;99.90
22161;DHT22;49035;48.812;11.762;2023-03-15T00:26:04;3.80;99.90
22161;DHT22;49035;48.812;11.762;2023-03-15T00:28:30;3.80;99.90
22161;DHT22;49035;48.812;11.762;2023-03-15T00:31:06;3.80;99.90
22161;DHT22;49035;48.812;11.762;2023-03-15T00:33:33;3.70;99.90
22161;DHT22;49035;48.812;11.762;2023-03-15T00:36:03;3.60;99.90
22161;DHT22;49035;48.812;11.762;2023-03-15T00:38:29;3.40;99.90
22161;DHT22;49035;48.812;11.762;2023-03-15T00:40:55;3.40;99.90
22161;DHT22;49035;48.812;11.762;2023-03-15T00:43:20;3.30;99.90
22161;DHT22;49035;48.812;11.762;2023-03-15T00:45:46;3.30;99.90
22161;DHT22;49035;48.812;11.762;2023-03-15T00:48:11;3.30;99.90
22161;DHT22;49035;48.812;11.762;2023-03-15T00:50:37;3.30;99.90
22161;DHT22;49035;48.812;11.762;2023-03-15T00:53:02;3.20;99.90
22161;DHT22;49035;48.812;11.762;2023-03-15T00:55:28;3.20;99.90
22161;DHT22;49035;48.812;11.762;2023-03-15T00:57:54;3.20;99.90
22161;DHT22;49035;48.812;11.762;2023-03-15T01:00:21;3.20;99.90
22161;DHT22;49035;48.812;11.762;2023-03-15T01:02:52;3.20;99.90
22161;DHT22;49035;48.812;11.762;2023-03-15T01:05:18;3.20;99.90
22161;DHT22;49035;48.812;11.762;2023-03-15T01:07:43;3.10;99.90
22161;DHT22;49035;48.812;11.762;2023-03-15T01:10:13;2.90;99.90
22161;DHT22;49035;48.812;11.762;2023-03-15T01:12:39;2.80;99.90
22161;DHT22;49035;48.812;11.762;2023-03-15T01:15:07;2.70;99.90
22161;DHT22;49035;48.812;11.762;2023-03-15T01:17:33;2.60;99.90
22161;DHT22;49035;48.812;11.762;2023-03-15T01:19:59;2.60;99.90
22161;DHT22;49035;48.812;11.762;2023-03-15T01:22:25;2.50;99.90
22161;DHT22;49035;48.812;11.762;2023-03-15T01:24:51;2.30;99.90
22161;DHT22;49035;48.812;11.762;2023-03-15T01:27:17;2.30;99.90
22161;DHT22;49035;48.812;11.762;2023-03-15T01:29:42;2.30;99.90
22161;DHT22;49035;48.812;11.762;2023-03-15T01:32:08;2.20;99.90
22161;DHT22;49035;48.812;11.762;2023-03-15T01:34:34;2.10;99.90
22161;DHT22;49035;48.812;11.762;2023-03-15T01:37:00;2.10;99.90
22161;DHT22;49035;48.812;11.762;2023-03-15T01:39:27;2.10;99.90
22161;DHT22;49035;48.812;11.762;2023-03-15T01:41:53;2.10;99.90
22161;DHT22;49035;48.812;11.762;2023-03-15T01:44:19;2.10;99.90
22161;DHT22;49035;48.812;11.762;2023-03-15T01:46:45;2.10;99.90
22161;DHT22;49035;48.812;11.762;2023-03-15T01:49:18;2.10;99.90
22161;DHT22;49035;48.812;11.762;2023-03-15T01:52:09;2.10;99.90
22161;DHT22;49035;48.812;11.762;2023-03-15T01:55:11;2.00;99.90
22161;DHT22;49035;48.812;11.762;2023-03-15T01:57:50;1.90;99.90
22161;DHT22;49035;48.812;11.762;2023-03-15T02:00:20;1.80;99.90
22161;DHT22;49035;48.812;11.762;2023-03-15T02:05:25;1.70;99.90
22161;DHT22;49035;48.812;11.762;2023-03-15T02:07:51;1.70;99.90
22161;DHT22;49035;48.812;11.762;2023-03-15T02:10:52;1.70;99.90
22161;DHT22;49035;48.812;11.762;2023-03-15T02:13:21;1.70;99.90
22161;DHT22;49035;48.812;11.762;2023-03-15T02:15:48;1.60;99.90
22161;DHT22;49035;48.812;11.762;2023-03-15T02:18:14;1.60;99.90
22161;DHT22;49035;48.812;11.762;2023-03-15T02:21:04;1.50;99.90
22161;DHT22;49035;48.812;11.762;2023-03-15T02:23:33;1.50;99.90
22161;DHT22;49035;48.812;11.762;2023-03-15T02:28:33;1.40;99.90
22161;DHT22;49035;48.812;11.762;2023-03-15T02:30:59;1.40;99.90
22161;DHT22;49035;48.812;11.762;2023-03-15T02:33:29;1.30;99.90
22161;DHT22;49035;48.812;11.762;2023-03-15T02:35:55;1.30;99.90
22161;DHT22;49035;48.812;11.762;2023-03-15T02:38:30;1.40;99.90
22161;DHT22;49035;48.812;11.762;2023-03-15T02:40:56;1.40;99.90
22161;DHT22;49035;48.812;11.762;2023-03-15T02:43:24;1.30;99.90
22161;DHT22;49035;48.812;11.762;2023-03-15T02:45:50;1.30;99.90
22161;DHT22;49035;48.812;11.762;2023-03-15T02:48:17;1.20;99.90
22161;DHT22;49035;48.812;11.762;2023-03-15T02:50:43;1.30;99.90
22161;DHT22;49035;48.812;11.762;2023-03-15T02:53:08;1.20;99.90
22161;DHT22;49035;48.812;11.762;2023-03-15T02:55:34;1.30;99.90
22161;DHT22;49035;48.812;11.762;2023-03-15T02:58:01;1.50;99.90
22161;DHT22;49035;48.812;11.762;2023-03-15T03:00:27;1.50;99.90
22161;DHT22;49035;48.812;11.762;2023-03-15T03:02:54;1.40;99.90
22161;DHT22;49035;48.812;11.762;2023-03-15T03:05:20;1.50;99.90
22161;DHT22;49035;48.812;11.762;2023-03-15T03:07:46;1.60;99.90
22161;DHT22;49035;48.812;11.762;2023-03-15T03:10:15;1.60;99.90
22161;DHT22;49035;48.812;11.762;2023-03-15T03:12:41;1.60;99.90
22161;DHT22;49035;48.812;11.762;2023-03-15T03:15:07;1.60;99.90
22161;DHT22;49035;48.812;11.762;2023-03-15T03:17:33;1.40;99.90
22161;DHT22;49035;48.812;11.762;2023-03-15T03:20:04;1.40;99.90
22161;DHT22;49035;48.812;11.762;2023-03-15T03:22:32;1.30;99.90
22161;DHT22;49035;48.812;11.762;2023-03-15T03:24:58;1.20;99.90
22161;DHT22;49035;48.812;11.762;2023-03-15T03:27:23;1.10;99.90
22161;DHT22;49035;48.812;11.762;2023-03-15T03:29:49;1.00;99.90
22161;DHT22;49035;48.812;11.762;2023-03-15T03:32:15;0.90;99.90
22161;DHT22;49035;48.812;11.762;2023-03-15T03:34:40;0.90;99.90
22161;DHT22;49035;48.812;11.762;2023-03-15T03:37:06;0.80;99.90
22161;DHT22;49035;48.812;11.762;2023-03-15T03:39:32;0.90;99.90
22161;DHT22;49035;48.812;11.762;2023-03-15T03:41:57;0.90;99.90
22161;DHT22;49035;48.812;11.762;2023-03-15T03:44:23;1.00;99.90
22161;DHT22;49035;48.812;11.762;2023-03-15T03:46:48;0.90;99.90
22161;DHT22;49035;48.812;11.762;2023-03-15T03:49:14;0.90;99.90
22161;DHT22;49035;48.812;11.762;2023-03-15T03:51:39;0.90;99.90
22161;DHT22;49035;48.812;11.762;2023-03-15T03:54:05;0.90;99.90
22161;DHT22;49035;48.812;11.762;2023-03-15T03:56:31;0.90;99.90
22161;DHT22;49035;48.812;11.762;2023-03-15T03:58:57;0.90;99.90
22161;DHT22;49035;48.812;11.762;2023-03-15T04:01:22;0.90;99.90
22161;DHT22;49035;48.812;11.762;2023-03-15T04:03:48;0.90;99.90
22161;DHT22;49035;48.812;11.762;2023-03-15T04:06:14;0.90;99.90
22161;DHT22;49035;48.812;11.762;2023-03-15T04:08:40;0.90;99.90
22161;DHT22;49035;48.812;11.762;2023-03-15T04:11:06;0.90;99.90
22161;DHT22;49035;48.812;11.762;2023-03-15T04:13:32;0.80;99.90
22161;DHT22;49035;48.812;11.762;2023-03-15T04:15:58;0.80;99.90
22161;DHT22;49035;48.812;11.762;2023-03-15T04:18:26;0.90;99.90
22161;DHT22;49035;48.812;11.762;2023-03-15T04:20:52;1.00;99.90
22161;DHT22;49035;48.812;11.762;2023-03-15T04:23:20;1.10;99.90
22161;DHT22;49035;48.812;11.762;2023-03-15T04:25:49;1.10;99.90
22161;DHT22;49035;48.812;11.762;2023-03-15T04:28:17;1.20;99.90
22161;DHT22;49035;48.812;11.762;2023-03-15T04:30:43;1.20;99.90
22161;DHT22;49035;48.812;11.762;2023-03-15T04:33:09;1.20;99.90
22161;DHT22;49035;48.812;11.762;2023-03-15T04:35:36;1.10;99.90
22161;DHT22;49035;48.812;11.762;2023-03-15T04:38:03;1.10;99.90
22161;DHT22;49035;48.812;11.762;2023-03-15T04:40:30;1.10;99.90
22161;DHT22;49035;48.812;11.762;2023-03-15T04:43:00;1.00;99.90
22161;DHT22;49035;48.812;11.762;2023-03-15T04:45:26;1.10;99.90
22161;DHT22;49035;48.812;11.762;2023-03-15T04:47:53;1.10;99.90
22161;DHT22;49035;48.812;11.762;2023-03-15T04:50:20;1.20;99.90
22161;DHT22;49035;48.812;11.762;2023-03-15T04:52:46;1.10;99.90
22161;DHT22;49035;48.812;11.762;2023-03-15T04:55:12;1.20;99.90
22161;DHT22;49035;48.812;11.762;2023-03-15T04:57:38;1.20;99.90
22161;DHT22;49035;48.812;11.762;2023-03-15T05:00:04;1.20;99.90
22161;DHT22;49035;48.812;11.762;2023-03-15T05:02:32;1.20;99.90
22161;DHT22;49035;48.812;11.762;2023-03-15T05:04:58;1.20;99.90
22161;DHT22;49035;48.812;11.762;2023-03-15T05:07:23;1.20;99.90
22161;DHT22;49035;48.812;11.762;2023-03-15T05:09:49;1.30;99.90
22161;DHT22;49035;48.812;11.762;2023-03-15T05:12:15;1.30;99.90
22161;DHT22;49035;48.812;11.762;2023-03-15T05:14:41;1.30;99.90
22161;DHT22;49035;48.812;11.762;2023-03-15T05:17:06;1.40;99.90
22161;DHT22;49035;48.812;11.762;2023-03-15T05:19:32;1.30;99.90
22161;DHT22;49035;48.812;11.762;2023-03-15T05:22:02;1.40;99.90
22161;DHT22;49035;48.812;11.762;2023-03-15T05:24:29;1.30;99.90
22161;DHT22;49035;48.812;11.762;2023-03-15T05:26:55;1.10;99.90
22161;DHT22;49035;48.812;11.762;2023-03-15T05:29:21;0.90;99.90
22161;DHT22;49035;48.812;11.762;2023-03-15T05:31:47;0.80;99.90
22161;DHT22;49035;48.812;11.762;2023-03-15T05:34:13;0.70;99.90
22161;DHT22;49035;48.812;11.762;2023-03-15T05:36:39;0.70;99.90
22161;DHT22;49035;48.812;11.762;2023-03-15T05:39:06;0.60;99.90
22161;DHT22;49035;48.812;11.762;2023-03-15T05:41:31;0.50;99.90
22161;DHT22;49035;48.812;11.762;2023-03-15T05:43:58;0.50;99.90
22161;DHT22;49035;48.812;11.762;2023-03-15T05:46:23;0.30;99.90
22161;DHT22;49035;48.812;11.762;2023-03-15T05:48:49;0.40;99.90
22161;DHT22;49035;48.812;11.762;2023-03-15T05:51:15;0.30;99.90
22161;DHT22;49035;48.812;11.762;2023-03-15T05:53:41;0.20;99.90
22161;DHT22;49035;48.812;11.762;2023-03-15T05:56:07;0.20;99.90
22161;DHT22;49035;48.812;11.762;2023-03-15T05:58:33;0.20;99.90
22161;DHT22;49035;48.812;11.762;2023-03-15T06:00:58;0.20;99.90
22161;DHT22;49035;48.812;11.762;2023-03-15T06:03:26;0.30;99.90
22161;DHT22;49035;48.812;11.762;2023-03-15T06:05:51;0.40;99.90
22161;DHT22;49035;48.812;11.762;2023-03-15T06:08:17;0.50;99.90
22161;DHT22;49035;48.812;11.762;2023-03-15T06:10:42;0.60;99.90
22161;DHT22;49035;48.812;11.762;2023-03-15T06:13:08;0.60;99.90
22161;DHT22;49035;48.812;11.762;2023-03-15T06:15:34;0.70;99.90
22161;DHT22;49035;48.812;11.762;2023-03-15T06:17:59;0.60;99.90
22161;DHT22;49035;48.812;11.762;2023-03-15T06:20:25;0.80;99.90
22161;DHT22;49035;48.812;11.762;2023-03-15T06:22:50;0.80;99.90
22161;DHT22;49035;48.812;11.762;2023-03-15T06:25:17;0.80;99.90
22161;DHT22;49035;48.812;11.762;2023-03-15T06:27:43;0.90;99.90
22161;DHT22;49035;48.812;11.762;2023-03-15T06:30:09;0.90;99.90
22161;DHT22;49035;48.812;11.762;2023-03-15T06:32:38;1.00;99.90
22161;DHT22;49035;48.812;11.762;2023-03-15T06:35:04;1.10;99.90
22161;DHT22;49035;48.812;11.762;2023-03-15T06:37:30;1.20;99.90
22161;DHT22;49035;48.812;11.762;2023-03-15T06:39:56;1.30;99.90
22161;DHT22;49035;48.812;11.762;2023-03-15T06:42:22;1.20;99.90
22161;DHT22;49035;48.812;11.762;2023-03-15T06:44:47;1.20;99.90
22161;DHT22;49035;48.812;11.762;2023-03-15T06:47:13;1.10;99.90
22161;DHT22;49035;48.812;11.762;2023-03-15T06:49:38;1.20;99.90
22161;DHT22;49035;48.812;11.762;2023-03-15T06:52:05;1.30;99.90
22161;DHT22;49035;48.812;11.762;2023-03-15T06:54:31;1.40;99.90
22161;DHT22;49035;48.812;11.762;2023-03-15T06:56:57;1.40;99.90
22161;DHT22;49035;48.812;11.762;2023-03-15T06:59:23;1.50;99.90
22161;DHT22;49035;48.812;11.762;2023-03-15T07:01:48;1.60;99.90
22161;DHT22;49035;48.812;11.762;2023-03-15T07:04:14;1.80;99.90
22161;DHT22;49035;48.812;11.762;2023-03-15T07:06:39;1.90;99.90
22161;DHT22;49035;48.812;11.762;2023-03-15T07:09:05;1.80;99.90
22161;DHT22;49035;48.812;11.762;2023-03-15T07:11:31;1.70;99.90
22161;DHT22;49035;48.812;11.762;2023-03-15T07:13:57;1.80;99.90
22161;DHT22;49035;48.812;11.762;2023-03-15T07:16:23;1.80;99.90
22161;DHT22;49035;48.812;11.762;2023-03-15T07:18:49;1.80;99.90
22161;DHT22;49035;48.812;11.762;2023-03-15T07:21:15;1.80;99.90
22161;DHT22;49035;48.812;11.762;2023-03-15T07:23:41;1.90;99.90
22161;DHT22;49035;48.812;11.762;2023-03-15T07:26:06;2.00;99.90
22161;DHT22;49035;48.812;11.762;2023-03-15T07:28:32;2.10;99.90
22161;DHT22;49035;48.812;11.762;2023-03-15T07:31:01;2.20;99.90
22161;DHT22;49035;48.812;11.762;2023-03-15T07:33:28;2.20;99.90
22161;DHT22;49035;48.812;11.762;2023-03-15T07:35:54;2.30;99.90
22161;DHT22;49035;48.812;11.762;2023-03-15T07:38:26;2.40;99.90
22161;DHT22;49035;48.812;11.762;2023-03-15T07:40:53;2.50;99.90
22161;DHT22;49035;48.812;11.762;2023-03-15T07:43:19;2.50;99.90
22161;DHT22;49035;48.812;11.762;2023-03-15T07:45:45;2.50;99.90
22161;DHT22;49035;48.812;11.762;2023-03-15T07:48:11;2.60;99.90
22161;DHT22;49035;48.812;11.762;2023-03-15T07:50:37;2.70;99.90
22161;DHT22;49035;48.812;11.762;2023-03-15T07:53:03;2.80;99.90
22161;DHT22;49035;48.812;11.762;2023-03-15T07:55:31;2.80;99.90
22161;DHT22;49035;48.812;11.762;2023-03-15T07:57:56;3.00;99.90
22161;DHT22;49035;48.812;11.762;2023-03-15T08:00:22;3.30;99.90
22161;DHT22;49035;48.812;11.762;2023-03-15T08:02:48;3.40;99.90
22161;DHT22;49035;48.812;11.762;2023-03-15T08:05:14;3.40;99.90
22161;DHT22;49035;48.812;11.762;2023-03-15T08:07:39;3.40;99.90
22161;DHT22;49035;48.812;11.762;2023-03-15T08:10:05;3.30;99.90
22161;DHT22;49035;48.812;11.762;2023-03-15T08:12:31;3.20;99.90
22161;DHT22;49035;48.812;11.762;2023-03-15T08:14:57;3.00;99.90
22161;DHT22;49035;48.812;11.762;2023-03-15T08:17:23;2.90;99.90
22161;DHT22;49035;48.812;11.762;2023-03-15T08:19:48;2.80;99.90
22161;DHT22;49035;48.812;11.762;2023-03-15T08:22:14;2.70;99.90
22161;DHT22;49035;48.812;11.762;2023-03-15T08:24:40;2.70;99.90
22161;DHT22;49035;48.812;11.762;2023-03-15T08:27:06;2.80;99.90
22161;DHT22;49035;48.812;11.762;2023-03-15T08:29:32;2.90;99.90
22161;DHT22;49035;48.812;11.762;2023-03-15T08:31:57;2.90;99.90
22161;DHT22;49035;48.812;11.762;2023-03-15T08:34:24;3.00;99.90
22161;DHT22;49035;48.812;11.762;2023-03-15T08:36:49;3.10;99.90
22161;DHT22;49035;48.812;11.762;2023-03-15T08:39:15;3.50;99.90
22161;DHT22;49035;48.812;11.762;2023-03-15T08:41:41;3.60;99.90
22161;DHT22;49035;48.812;11.762;2023-03-15T08:44:08;3.80;99.90
22161;DHT22;49035;48.812;11.762;2023-03-15T08:46:34;4.00;99.90
22161;DHT22;49035;48.812;11.762;2023-03-15T08:48:59;4.00;99.90
22161;DHT22;49035;48.812;11.762;2023-03-15T08:51:26;4.00;99.90
22161;DHT22;49035;48.812;11.762;2023-03-15T08:53:52;4.20;99.90
22161;DHT22;49035;48.812;11.762;2023-03-15T08:56:18;4.40;99.90
22161;DHT22;49035;48.812;11.762;2023-03-15T08:58:44;4.50;99.90
22161;DHT22;49035;48.812;11.762;2023-03-15T09:01:14;4.80;99.90
22161;DHT22;49035;48.812;11.762;2023-03-15T09:03:40;4.90;99.90
22161;DHT22;49035;48.812;11.762;2023-03-15T09:06:07;5.00;99.90
22161;DHT22;49035;48.812;11.762;2023-03-15T09:08:33;5.10;99.90
22161;DHT22;49035;48.812;11.762;2023-03-15T09:10:59;5.20;99.90
22161;DHT22;49035;48.812;11.762;2023-03-15T09:13:26;5.40;99.90
22161;DHT22;49035;48.812;11.762;2023-03-15T09:15:53;5.60;99.90
22161;DHT22;49035;48.812;11.762;2023-03-15T09:18:19;6.00;99.90
22161;DHT22;49035;48.812;11.762;2023-03-15T09:20:45;6.50;99.90
22161;DHT22;49035;48.812;11.762;2023-03-15T09:23:12;6.70;99.90
22161;DHT22;49035;48.812;11.762;2023-03-15T09:25:38;7.00;98.30
22161;DHT22;49035;48.812;11.762;2023-03-15T09:28:05;7.10;96.20
22161;DHT22;49035;48.812;11.762;2023-03-15T09:30:31;6.70;98.10
22161;DHT22;49035;48.812;11.762;2023-03-15T09:32:57;6.30;94.40
22161;DHT22;49035;48.812;11.762;2023-03-15T09:35:22;6.00;95.50
22161;DHT22;49035;48.812;11.762;2023-03-15T09:37:49;5.80;95.80
22161;DHT22;49035;48.812;11.762;2023-03-15T09:53:55;7.10;95.00
22161;DHT22;49035;48.812;11.762;2023-03-15T09:56:24;7.20;95.30
22161;DHT22;49035;48.812;11.762;2023-03-15T09:58:55;7.60;94.00
22161;DHT22;49035;48.812;11.762;2023-03-15T10:01:39;7.80;93.20
22161;DHT22;49035;48.812;11.762;2023-03-15T10:04:34;7.70;94.10
22161;DHT22;49035;48.812;11.762;2023-03-15T10:07:11;8.20;93.40
22161;DHT22;49035;48.812;11.762;2023-03-15T10:09:38;7.70;88.20
22161;DHT22;49035;48.812;11.762;2023-03-15T10:12:11;7.40;90.00
22161;DHT22;49035;48.812;11.762;2023-03-15T10:17:19;6.40;93.30
22161;DHT22;49035;48.812;11.762;2023-03-15T10:19:50;6.00;90.10
22161;DHT22;49035;48.812;11.762;2023-03-15T10:25:16;6.90;90.90
22161;DHT22;49035;48.812;11.762;2023-03-15T10:27:56;7.70;87.70
22161;DHT22;49035;48.812;11.762;2023-03-15T10:30:26;8.30;88.90
22161;DHT22;49035;48.812;11.762;2023-03-15T10:32:59;8.70;86.50
22161;DHT22;49035;48.812;11.762;2023-03-15T10:35:26;9.00;87.10
22161;DHT22;49035;48.812;11.762;2023-03-15T10:37:51;9.40;82.20
22161;DHT22;49035;48.812;11.762;2023-03-15T10:40:38;8.60;81.80
22161;DHT22;49035;48.812;11.762;2023-03-15T10:43:23;7.70;83.00
22161;DHT22;49035;48.812;11.762;2023-03-15T10:48:39;8.90;85.00
22161;DHT22;49035;48.812;11.762;2023-03-15T10:54:11;7.90;86.60
22161;DHT22;49035;48.812;11.762;2023-03-15T10:59:26;7.00;87.50
22161;DHT22;49035;48.812;11.762;2023-03-15T11:02:06;6.40;85.60
22161;DHT22;49035;48.812;11.762;2023-03-15T11:04:32;6.40;85.90
22161;DHT22;49035;48.812;11.762;2023-03-15T11:06:59;6.70;90.50
22161;DHT22;49035;48.812;11.762;2023-03-15T11:09:39;6.90;85.90
22161;DHT22;49035;48.812;11.762;2023-03-15T11:12:08;7.30;89.30
22161;DHT22;49035;48.812;11.762;2023-03-15T11:14:47;7.60;83.20
22161;DHT22;49035;48.812;11.762;2023-03-15T11:17:22;7.90;84.60
22161;DHT22;49035;48.812;11.762;2023-03-15T11:20:00;7.80;89.80
22161;DHT22;49035;48.812;11.762;2023-03-15T11:22:41;8.50;89.10
22161;DHT22;49035;48.812;11.762;2023-03-15T11:25:14;9.20;83.80
22161;DHT22;49035;48.812;11.762;2023-03-15T11:27:41;9.70;83.70
22161;DHT22;49035;48.812;11.762;2023-03-15T11:30:15;9.60;84.00
22161;DHT22;49035;48.812;11.762;2023-03-15T11:32:42;9.50;77.90
22161;DHT22;49035;48.812;11.762;2023-03-15T11:35:21;9.30;78.80
22161;DHT22;49035;48.812;11.762;2023-03-15T11:38:11;9.40;78.20
22161;DHT22;49035;48.812;11.762;2023-03-15T11:40:44;9.50;80.50
22161;DHT22;49035;48.812;11.762;2023-03-15T11:43:47;9.70;80.20
22161;DHT22;49035;48.812;11.762;2023-03-15T11:46:24;10.00;79.00
22161;DHT22;49035;48.812;11.762;2023-03-15T11:49:02;9.90;76.10
22161;DHT22;49035;48.812;11.762;2023-03-15T11:51:33;9.20;78.50
22161;DHT22;49035;48.812;11.762;2023-03-15T11:54:14;9.00;80.80
22161;DHT22;49035;48.812;11.762;2023-03-15T11:59:10;8.50;79.80
22161;DHT22;49035;48.812;11.762;2023-03-15T12:01:50;8.60;79.40
22161;DHT22;49035;48.812;11.762;2023-03-15T12:07:23;9.10;80.20
22161;DHT22;49035;48.812;11.762;2023-03-15T12:09:52;9.50;78.80
22161;DHT22;49035;48.812;11.762;2023-03-15T12:18:01;9.00;77.30
22161;DHT22;49035;48.812;11.762;2023-03-15T12:23:34;8.50;77.10
22161;DHT22;49035;48.812;11.762;2023-03-15T12:28:40;8.30;84.40
22161;DHT22;49035;48.812;11.762;2023-03-15T12:31:09;8.50;80.50
22161;DHT22;49035;48.812;11.762;2023-03-15T12:33:49;8.70;80.30
22161;DHT22;49035;48.812;11.762;2023-03-15T12:36:37;8.30;80.10
22161;DHT22;49035;48.812;11.762;2023-03-15T12:41:43;8.60;81.80
22161;DHT22;49035;48.812;11.762;2023-03-15T12:47:07;7.70;79.80
22161;DHT22;49035;48.812;11.762;2023-03-15T12:49:51;7.50;83.10
22161;DHT22;49035;48.812;11.762;2023-03-15T12:52:27;8.10;82.80
22161;DHT22;49035;48.812;11.762;2023-03-15T12:55:15;8.70;84.20
22161;DHT22;49035;48.812;11.762;2023-03-15T12:57:49;8.80;81.90
22161;DHT22;49035;48.812;11.762;2023-03-15T13:00:20;8.80;76.10
22161;DHT22;49035;48.812;11.762;2023-03-15T13:03:11;8.50;79.50
22161;DHT22;49035;48.812;11.762;2023-03-15T13:16:00;8.10;77.50
22161;DHT22;49035;48.812;11.762;2023-03-15T13:18:31;7.80;79.30
22161;DHT22;49035;48.812;11.762;2023-03-15T13:23:32;7.20;79.70
22161;DHT22;49035;48.812;11.762;2023-03-15T13:28:46;6.80;82.50
22161;DHT22;49035;48.812;11.762;2023-03-15T13:31:20;6.60;81.20
22161;DHT22;49035;48.812;11.762;2023-03-15T13:33:52;6.60;83.30
22161;DHT22;49035;48.812;11.762;2023-03-15T13:36:39;6.60;83.00
22161;DHT22;49035;48.812;11.762;2023-03-15T13:39:19;6.50;82.80
22161;DHT22;49035;48.812;11.762;2023-03-15T13:41:47;6.40;86.70
22161;DHT22;49035;48.812;11.762;2023-03-15T13:44:23;6.60;87.40
22161;DHT22;49035;48.812;11.762;2023-03-15T13:46:51;7.00;87.70
22161;DHT22;49035;48.812;11.762;2023-03-15T13:49:17;6.80;86.20
22161;DHT22;49035;48.812;11.762;2023-03-15T13:51:45;6.70;88.40
22161;DHT22;49035;48.812;11.762;2023-03-15T13:54:24;6.60;90.30
22161;DHT22;49035;48.812;11.762;2023-03-15T13:57:05;6.60;91.20
22161;DHT22;49035;48.812;11.762;2023-03-15T14:02:23;6.20;92.20
22161;DHT22;49035;48.812;11.762;2023-03-15T14:04:58;6.20;93.40
22161;DHT22;49035;48.812;11.762;2023-03-15T14:07:34;6.00;93.30
22161;DHT22;49035;48.812;11.762;2023-03-15T14:12:42;5.60;96.10
22161;DHT22;49035;48.812;11.762;2023-03-15T14:15:18;5.50;96.60
22161;DHT22;49035;48.812;11.762;2023-03-15T14:20:40;5.50;96.90
22161;DHT22;49035;48.812;11.762;2023-03-15T14:23:15;5.40;97.00
22161;DHT22;49035;48.812;11.762;2023-03-15T14:25:41;5.20;97.60
22161;DHT22;49035;48.812;11.762;2023-03-15T14:28:13;5.10;99.50
22161;DHT22;49035;48.812;11.762;2023-03-15T14:30:40;4.80;99.90
22161;DHT22;49035;48.812;11.762;2023-03-15T14:33:06;4.60;99.90
22161;DHT22;49035;48.812;11.762;2023-03-15T14:40:45;4.30;99.90
22161;DHT22;49035;48.812;11.762;2023-03-15T14:43:11;4.40;99.90
22161;DHT22;49035;48.812;11.762;2023-03-15T14:45:39;4.80;99.90
22161;DHT22;49035;48.812;11.762;2023-03-15T14:48:10;5.10;99.90
22161;DHT22;49035;48.812;11.762;2023-03-15T14:50:38;5.40;99.90
22161;DHT22;49035;48.812;11.762;2023-03-15T14:53:07;5.70;99.90
22161;DHT22;49035;48.812;11.762;2023-03-15T14:55:35;5.70;99.90
22161;DHT22;49035;48.812;11.762;2023-03-15T14:58:15;5.40;99.90
22161;DHT22;49035;48.812;11.762;2023-03-15T15:00:42;5.10;99.90
22161;DHT22;49035;48.812;11.762;2023-03-15T15:03:22;5.00;99.90
22161;DHT22;49035;48.812;11.762;2023-03-15T15:05:50;4.90;99.90
22161;DHT22;49035;48.812;11.762;2023-03-15T15:08:18;4.80;99.90
22161;DHT22;49035;48.812;11.762;2023-03-15T15:10:47;4.80;99.90
22161;DHT22;49035;48.812;11.762;2023-03-15T15:15:42;5.10;99.90
22161;DHT22;49035;48.812;11.762;2023-03-15T15:18:08;5.10;99.90
22161;DHT22;49035;48.812;11.762;2023-03-15T15:20:34;5.10;99.90
22161;DHT22;49035;48.812;11.762;2023-03-15T15:22:59;5.00;99.90
22161;DHT22;49035;48.812;11.762;2023-03-15T15:25:25;4.90;99.90
22161;DHT22;49035;48.812;11.762;2023-03-15T15:27:54;4.90;99.90
22161;DHT22;49035;48.812;11.762;2023-03-15T15:30:23;4.90;99.90
22161;DHT22;49035;48.812;11.762;2023-03-15T15:32:49;4.90;99.90
22161;DHT22;49035;48.812;11.762;2023-03-15T15:35:18;4.80;99.90
22161;DHT22;49035;48.812;11.762;2023-03-15T15:37:46;4.70;99.90
22161;DHT22;49035;48.812;11.762;2023-03-15T15:40:27;4.70;99.90
22161;DHT22;49035;48.812;11.762;2023-03-15T15:42:54;4.70;99.90
22161;DHT22;49035;48.812;11.762;2023-03-15T15:45:20;4.70;99.90
22161;DHT22;49035;48.812;11.762;2023-03-15T15:47:46;4.70;99.90
22161;DHT22;49035;48.812;11.762;2023-03-15T15:50:14;4.70;99.90
22161;DHT22;49035;48.812;11.762;2023-03-15T15:52:42;4.80;99.90
22161;DHT22;49035;48.812;11.762;2023-03-15T15:55:14;4.70;99.90
22161;DHT22;49035;48.812;11.762;2023-03-15T15:57:41;4.70;99.90
22161;DHT22;49035;48.812;11.762;2023-03-15T16:00:13;4.50;99.90
22161;DHT22;49035;48.812;11.762;2023-03-15T16:02:40;4.30;99.90
22161;DHT22;49035;48.812;11.762;2023-03-15T16:05:07;4.20;99.90
22161;DHT22;49035;48.812;11.762;2023-03-15T16:07:35;4.00;99.90
22161;DHT22;49035;48.812;11.762;2023-03-15T16:10:01;3.90;99.90
22161;DHT22;49035;48.812;11.762;2023-03-15T16:12:26;3.80;99.90
22161;DHT22;49035;48.812;11.762;2023-03-15T16:14:53;3.80;99.90
22161;DHT22;49035;48.812;11.762;2023-03-15T16:17:21;3.70;99.90
22161;DHT22;49035;48.812;11.762;2023-03-15T16:19:47;3.70;99.90
22161;DHT22;49035;48.812;11.762;2023-03-15T16:22:13;3.70;99.90
22161;DHT22;49035;48.812;11.762;2023-03-15T16:24:40;3.80;99.90
22161;DHT22;49035;48.812;11.762;2023-03-15T16:27:13;3.80;99.90
22161;DHT22;49035;48.812;11.762;2023-03-15T16:29:42;3.80;99.90
22161;DHT22;49035;48.812;11.762;2023-03-15T16:32:12;3.70;99.90
22161;DHT22;49035;48.812;11.762;2023-03-15T16:34:38;3.70;99.90
22161;DHT22;49035;48.812;11.762;2023-03-15T16:37:04;3.70;99.90
22161;DHT22;49035;48.812;11.762;2023-03-15T16:39:30;3.90;99.90
22161;DHT22;49035;48.812;11.762;2023-03-15T16:41:56;3.90;99.90
22161;DHT22;49035;48.812;11.762;2023-03-15T16:44:22;3.90;99.90
22161;DHT22;49035;48.812;11.762;2023-03-15T16:46:48;3.80;99.90
22161;DHT22;49035;48.812;11.762;2023-03-15T16:49:13;3.70;99.90
22161;DHT22;49035;48.812;11.762;2023-03-15T16:51:42;3.70;99.90
22161;DHT22;49035;48.812;11.762;2023-03-15T16:54:10;3.60;99.90
22161;DHT22;49035;48.812;11.762;2023-03-15T16:56:36;3.40;99.90
22161;DHT22;49035;48.812;11.762;2023-03-15T16:59:03;3.30;99.90
22161;DHT22;49035;48.812;11.762;2023-03-15T17:01:29;3.20;99.90
22161;DHT22;49035;48.812;11.762;2023-03-15T17:03:59;3.20;99.90
22161;DHT22;49035;48.812;11.762;2023-03-15T17:06:25;3.20;99.90